Time;durP1;ratioP1;P1;durP2;ratioP2;P2;SDS_P1;SDS_P2;PMS_P1;PMS_P2;Temp;Humidity;BMP_temperature;BMP_pressure;BME280_temperature;BME280_humidity;BME280_pressure;Samples;Min_cycle;Max_cycle;Signal;HPM_P1;HPM_P2
2022/05/01 00:01:36;;;;;;;58.72;21.98;;;8.50;99.90;;;;;;5006493;28;20088;-63
2022/05/01 00:04:02;;;;;;;60.40;22.90;;;8.60;99.90;;;;;;5007743;28;20063;-63
2022/05/01 00:06:30;;;;;;;63.47;22.63;;;8.60;99.90;;;;;;4998740;28;20105;-64
2022/05/01 00:08:55;;;;;;;55.00;21.80;;;8.60;99.90;;;;;;4994092;28;20042;-63
2022/05/01 00:11:21;;;;;;;57.88;22.15;;;8.60;99.90;;;;;;5005863;28;20056;-63
2022/05/01 00:13:47;;;;;;;53.10;21.48;;;8.60;99.90;;;;;;5000563;28;20022;-63
2022/05/01 00:16:13;;;;;;;51.13;21.85;;;8.60;99.90;;;;;;5004640;28;20053;-63
2022/05/01 00:18:40;;;;;;;56.72;22.85;;;8.60;99.90;;;;;;5002361;28;20026;-63
2022/05/01 00:21:05;;;;;;;55.65;22.67;;;8.50;99.90;;;;;;5007645;28;20096;-63
2022/05/01 00:23:31;;;;;;;51.33;22.27;;;8.50;99.90;;;;;;5003388;28;20116;-63
2022/05/01 00:25:59;;;;;;;49.63;21.35;;;8.50;99.90;;;;;;5007621;28;20591;-63
2022/05/01 00:28:24;;;;;;;55.78;22.10;;;8.60;99.90;;;;;;4999480;28;20041;-63
2022/05/01 00:30:50;;;;;;;52.17;21.00;;;8.60;99.90;;;;;;4984853;28;20080;-63
2022/05/01 00:38:44;;;;;;;56.00;21.60;;;8.50;99.90;;;;;;5007538;28;20076;-63
2022/05/01 00:41:11;;;;;;;51.47;21.30;;;8.50;99.90;;;;;;4998659;28;20479;-64
2022/05/01 00:44:08;;;;;;;55.30;21.50;;;8.60;99.90;;;;;;5008667;28;20033;-63
2022/05/01 00:46:36;;;;;;;55.28;20.98;;;8.60;99.90;;;;;;4999486;28;20037;-63
2022/05/01 00:49:04;;;;;;;53.20;21.48;;;8.60;99.90;;;;;;4998207;28;20117;-63
2022/05/01 00:51:32;;;;;;;54.42;21.95;;;8.70;99.90;;;;;;5003616;28;20041;-63
2022/05/01 00:53:58;;;;;;;54.03;22.27;;;8.70;99.90;;;;;;5001957;28;20034;-63
2022/05/01 00:56:24;;;;;;;59.65;21.92;;;8.70;99.90;;;;;;4989847;28;20030;-63
2022/05/01 00:58:51;;;;;;;55.25;21.35;;;8.70;99.90;;;;;;4973631;28;20026;-63
2022/05/01 01:01:18;;;;;;;58.13;20.50;;;8.70;99.90;;;;;;5000701;28;20090;-63
2022/05/01 01:03:44;;;;;;;56.45;21.52;;;8.70;99.90;;;;;;5008602;28;20399;-63
2022/05/01 01:06:10;;;;;;;47.67;21.13;;;8.70;99.90;;;;;;4999202;28;20028;-63
2022/05/01 01:08:36;;;;;;;52.75;21.23;;;8.70;99.90;;;;;;4990888;28;20038;-63
2022/05/01 01:11:02;;;;;;;53.13;20.50;;;8.80;99.90;;;;;;4988696;28;20026;-63
2022/05/01 01:13:29;;;;;;;56.35;21.50;;;8.80;99.90;;;;;;5005174;28;20064;-63
2022/05/01 01:15:55;;;;;;;50.60;21.05;;;8.80;99.90;;;;;;5000743;28;20060;-63
2022/05/01 01:18:25;;;;;;;54.83;21.38;;;8.80;99.90;;;;;;4984799;28;20046;-63
2022/05/01 01:20:54;;;;;;;56.58;20.92;;;8.80;99.90;;;;;;5006185;28;20029;-63
2022/05/01 01:23:21;;;;;;;56.55;21.15;;;8.80;99.90;;;;;;5004971;28;20037;-63
2022/05/01 01:25:48;;;;;;;60.83;20.80;;;8.80;99.90;;;;;;5006258;28;20049;-63
2022/05/01 01:28:14;;;;;;;58.72;21.55;;;8.80;99.90;;;;;;5001473;28;20033;-63
2022/05/01 01:33:29;;;;;;;53.10;21.48;;;8.70;99.90;;;;;;5003276;28;20037;-63
2022/05/01 01:35:58;;;;;;;54.25;20.52;;;8.70;99.90;;;;;;4999777;28;20666;-63
2022/05/01 01:38:24;;;;;;;60.55;22.70;;;8.70;99.90;;;;;;5004893;28;20041;-63
2022/05/01 01:40:58;;;;;;;59.28;21.40;;;8.70;99.90;;;;;;5001605;28;20030;-63
2022/05/01 01:43:28;;;;;;;56.50;21.60;;;8.70;99.90;;;;;;4996500;28;20022;-63
2022/05/01 01:45:55;;;;;;;62.08;22.40;;;8.70;99.90;;;;;;5000721;28;20518;-63
2022/05/01 01:48:22;;;;;;;63.15;22.92;;;8.60;99.90;;;;;;5008710;28;20038;-63
2022/05/01 01:51:03;;;;;;;65.25;21.88;;;8.70;99.90;;;;;;4989532;28;20382;-63
2022/05/01 01:53:30;;;;;;;59.78;22.08;;;8.60;99.90;;;;;;4992651;28;20097;-63
2022/05/01 01:55:57;;;;;;;57.08;22.30;;;8.50;99.90;;;;;;4999794;28;20141;-63
2022/05/01 01:58:27;;;;;;;51.72;21.52;;;8.60;99.90;;;;;;4994059;28;20026;-63
2022/05/01 02:00:53;;;;;;;54.53;22.13;;;8.50;99.90;;;;;;5007121;28;20037;-63
2022/05/01 02:03:19;;;;;;;59.40;22.75;;;8.60;99.90;;;;;;5002738;28;20093;-63
2022/05/01 02:05:48;;;;;;;70.13;23.90;;;8.60;99.90;;;;;;4995943;28;20042;-63
2022/05/01 02:08:14;;;;;;;57.65;22.98;;;8.60;99.90;;;;;;4998279;28;20033;-63
2022/05/01 02:10:40;;;;;;;51.28;22.05;;;8.60;99.90;;;;;;4991076;28;20030;-63
2022/05/01 02:13:07;;;;;;;59.35;23.25;;;8.60;99.90;;;;;;5007507;28;20038;-63
2022/05/01 02:15:35;;;;;;;56.83;22.52;;;8.60;99.90;;;;;;5008840;28;20038;-63
2022/05/01 02:18:02;;;;;;;58.30;21.85;;;8.60;99.90;;;;;;5001808;28;20438;-63
2022/05/01 02:23:14;;;;;;;55.40;21.98;;;8.60;99.90;;;;;;4992215;28;20033;-63
2022/05/01 02:25:40;;;;;;;57.33;21.98;;;8.70;99.90;;;;;;5003762;28;20033;-63
2022/05/01 02:28:06;;;;;;;55.75;22.23;;;8.70;99.90;;;;;;5010272;28;20046;-63
2022/05/01 02:30:32;;;;;;;60.22;23.38;;;8.80;99.90;;;;;;5002482;28;20037;-63
2022/05/01 02:32:57;;;;;;;56.22;23.00;;;8.80;99.90;;;;;;5011685;28;20092;-63
2022/05/01 02:35:23;;;;;;;55.83;22.27;;;8.80;99.90;;;;;;5006926;28;20034;-63
2022/05/01 02:37:49;;;;;;;58.33;21.70;;;8.70;99.90;;;;;;4993118;28;20026;-63
2022/05/01 02:40:14;;;;;;;55.75;22.80;;;8.70;99.90;;;;;;4999911;28;20063;-63
2022/05/01 02:42:40;;;;;;;57.22;22.88;;;8.70;99.90;;;;;;5007645;28;20441;-63
2022/05/01 02:45:06;;;;;;;61.63;23.60;;;8.70;99.90;;;;;;4999361;28;20034;-63
2022/05/01 02:47:33;;;;;;;61.40;23.17;;;8.80;99.90;;;;;;4993574;28;20398;-63
2022/05/01 02:50:00;;;;;;;52.08;21.95;;;8.70;99.90;;;;;;4979583;28;20034;-62
2022/05/01 02:52:25;;;;;;;58.75;23.25;;;8.70;99.90;;;;;;5009036;28;20069;-63
2022/05/01 02:54:51;;;;;;;58.63;24.20;;;8.70;99.90;;;;;;4981530;28;20062;-63
2022/05/01 02:57:17;;;;;;;56.10;23.98;;;8.70;99.90;;;;;;5011661;28;20095;-63
2022/05/01 02:59:43;;;;;;;58.97;22.58;;;8.60;99.90;;;;;;5008051;28;20025;-63
2022/05/01 03:02:09;;;;;;;60.28;22.67;;;8.60;99.90;;;;;;4990832;28;20035;-63
2022/05/01 03:04:36;;;;;;;54.85;22.42;;;8.60;99.90;;;;;;4999073;28;20031;-63
2022/05/01 03:07:04;;;;;;;57.55;21.85;;;8.60;99.90;;;;;;5004441;28;20030;-63
2022/05/01 03:09:30;;;;;;;60.55;24.20;;;8.60;99.90;;;;;;5012037;28;20038;-63
2022/05/01 03:11:55;;;;;;;56.05;23.13;;;8.60;99.90;;;;;;5003329;28;20064;-63
2022/05/01 03:14:21;;;;;;;57.05;23.27;;;8.60;99.90;;;;;;5010257;28;20414;-63
2022/05/01 03:16:47;;;;;;;56.45;22.58;;;8.60;99.90;;;;;;4997581;28;20034;-63
2022/05/01 03:22:13;;;;;;;56.58;21.92;;;8.60;99.90;;;;;;5011326;28;20077;-63
2022/05/01 03:24:40;;;;;;;58.53;23.38;;;8.60;99.90;;;;;;5010660;28;20032;-63
2022/05/01 03:27:07;;;;;;;60.53;24.40;;;8.60;99.90;;;;;;5009528;28;20482;-63
2022/05/01 03:29:33;;;;;;;67.10;23.60;;;8.60;99.90;;;;;;5010610;28;20056;-63
2022/05/01 03:31:59;;;;;;;59.95;24.05;;;8.70;99.90;;;;;;4992929;28;20049;-63
2022/05/01 03:34:26;;;;;;;54.15;21.45;;;8.70;99.90;;;;;;5018429;28;20037;-63
2022/05/01 03:36:56;;;;;;;55.75;22.27;;;8.60;99.90;;;;;;5031258;28;20068;-63
2022/05/01 03:39:22;;;;;;;55.88;22.85;;;8.60;99.90;;;;;;5012049;28;20406;-63
2022/05/01 03:41:48;;;;;;;56.08;22.17;;;8.70;99.90;;;;;;4993528;28;20030;-63
2022/05/01 03:44:13;;;;;;;55.30;21.67;;;8.70;99.90;;;;;;5008948;28;20036;-63
2022/05/01 03:46:39;;;;;;;57.28;23.13;;;8.70;99.90;;;;;;5010157;28;20102;-63
2022/05/01 03:49:06;;;;;;;56.65;22.98;;;8.70;99.90;;;;;;5009030;28;20454;-63
2022/05/01 03:51:32;;;;;;;54.92;22.20;;;8.70;99.90;;;;;;5011174;28;20447;-63
2022/05/01 03:54:02;;;;;;;57.22;22.40;;;8.70;99.90;;;;;;5011005;28;20057;-63
2022/05/01 03:56:31;;;;;;;54.60;22.55;;;8.70;99.90;;;;;;5002483;28;20093;-63
2022/05/01 03:58:57;;;;;;;53.22;22.25;;;8.70;99.90;;;;;;5017026;28;20030;-63
2022/05/01 04:01:24;;;;;;;56.58;22.83;;;8.70;99.90;;;;;;5003785;28;20033;-63
2022/05/01 04:03:50;;;;;;;53.67;22.73;;;8.70;99.90;;;;;;5010412;28;20033;-63
2022/05/01 04:06:16;;;;;;;60.22;23.77;;;8.70;99.90;;;;;;5006270;28;20038;-63
2022/05/01 04:08:42;;;;;;;55.58;22.70;;;8.70;99.90;;;;;;5003255;28;20439;-63
2022/05/01 04:11:08;;;;;;;57.53;22.80;;;8.60;99.90;;;;;;5004583;28;20030;-63
2022/05/01 04:13:35;;;;;;;61.65;23.30;;;8.60;99.90;;;;;;5010283;28;20408;-63
2022/05/01 04:16:02;;;;;;;57.70;22.38;;;8.70;99.90;;;;;;5006229;28;20096;-63
2022/05/01 04:18:28;;;;;;;55.60;22.83;;;8.70;99.90;;;;;;5009460;28;20038;-63
2022/05/01 04:20:53;;;;;;;51.05;22.75;;;8.80;99.90;;;;;;5007350;28;20025;-63
2022/05/01 04:23:20;;;;;;;57.10;23.50;;;8.70;99.90;;;;;;5004299;28;20141;-63
2022/05/01 04:25:46;;;;;;;55.22;23.48;;;8.70;99.90;;;;;;5005050;28;20042;-63
2022/05/01 04:28:12;;;;;;;51.42;22.55;;;8.70;99.90;;;;;;4996889;28;20034;-64
2022/05/01 04:30:39;;;;;;;55.40;22.98;;;8.70;99.90;;;;;;4999740;28;20034;-64
2022/05/01 04:33:09;;;;;;;61.97;24.88;;;8.70;99.90;;;;;;5007149;28;20121;-63
2022/05/01 04:35:43;;;;;;;59.20;24.33;;;8.80;99.90;;;;;;5007573;28;20112;-63
2022/05/01 04:38:13;;;;;;;57.03;22.45;;;8.70;99.90;;;;;;5013686;28;20034;-63
2022/05/01 04:40:47;;;;;;;55.35;23.52;;;8.70;99.90;;;;;;5004114;28;20058;-63
2022/05/01 04:43:18;;;;;;;51.22;21.98;;;8.70;99.90;;;;;;4991910;28;20096;-63
2022/05/01 04:45:49;;;;;;;58.97;22.65;;;8.80;99.90;;;;;;5009434;28;20036;-63
2022/05/01 04:48:15;;;;;;;;;;;8.80;99.90;;;;;;4999591;28;20070;-63
2022/05/01 04:50:41;;;;;;;62.47;23.40;;;8.80;99.90;;;;;;5008036;28;19970;-64
2022/05/01 04:53:12;;;;;;;59.35;24.45;;;8.80;99.90;;;;;;5007750;28;20030;-64
2022/05/01 04:55:43;;;;;;;59.60;24.63;;;8.80;99.90;;;;;;5010228;28;20109;-62
2022/05/01 04:58:11;;;;;;;60.58;24.55;;;8.80;99.90;;;;;;4996464;28;20080;-62
2022/05/01 05:00:37;;;;;;;64.97;25.20;;;8.80;99.90;;;;;;5004734;28;20116;-62
2022/05/01 05:03:04;;;;;;;62.22;23.83;;;8.80;99.90;;;;;;4994589;28;20029;-62
2022/05/01 05:05:31;;;;;;;59.75;24.67;;;8.80;99.90;;;;;;5004987;28;20053;-62
2022/05/01 05:09:53;;;;;;;63.58;24.58;;;8.80;99.90;;;;;;4999281;28;20038;-62
2022/05/01 05:10:47;;;;;;;61.50;24.52;;;8.80;99.90;;;;;;5003458;28;20475;-62
2022/05/01 05:13:21;;;;;;;59.72;25.55;;;8.80;99.90;;;;;;5011515;28;20034;-62
2022/05/01 05:15:47;;;;;;;62.08;24.33;;;8.80;99.90;;;;;;5009860;28;20060;-62
2022/05/01 05:18:13;;;;;;;55.08;23.50;;;8.80;99.90;;;;;;5006739;28;20037;-62
2022/05/01 05:20:39;;;;;;;57.13;22.38;;;8.80;99.90;;;;;;5001995;28;20030;-62
2022/05/01 05:23:05;;;;;;;56.28;23.95;;;8.80;99.90;;;;;;5006251;28;21726;-62
2022/05/01 05:25:31;;;;;;;57.33;24.48;;;8.80;99.90;;;;;;4988645;28;20030;-62
2022/05/01 05:27:57;;;;;;;55.42;22.35;;;8.80;99.90;;;;;;4996640;28;20030;-62
2022/05/01 05:30:23;;;;;;;57.47;24.15;;;8.80;99.90;;;;;;4988495;28;20037;-62
2022/05/01 05:32:49;;;;;;;55.70;24.70;;;8.80;99.90;;;;;;4972767;28;21159;-62
2022/05/01 05:35:15;;;;;;;57.75;23.60;;;8.80;99.90;;;;;;4993707;28;20065;-62
2022/05/01 05:37:40;;;;;;;56.88;24.25;;;8.80;99.90;;;;;;4996298;28;20038;-62
2022/05/01 05:40:06;;;;;;;57.08;23.58;;;8.80;99.90;;;;;;5003487;28;20099;-62
2022/05/01 05:42:32;;;;;;;62.13;24.52;;;8.90;99.90;;;;;;4996483;28;20480;-61
2022/05/01 05:44:59;;;;;;;55.17;23.67;;;8.90;99.90;;;;;;4977921;28;20081;-63
2022/05/01 05:47:25;;;;;;;56.13;24.02;;;9.00;99.90;;;;;;4994547;28;20110;-62
2022/05/01 05:49:51;;;;;;;58.03;24.50;;;9.00;99.90;;;;;;5001960;28;20479;-62
2022/05/01 05:52:16;;;;;;;59.67;23.58;;;9.10;99.90;;;;;;5005452;28;20112;-62
2022/05/01 05:54:42;;;;;;;51.55;22.90;;;9.10;99.90;;;;;;5001337;28;20042;-62
2022/05/01 05:57:07;;;;;;;60.35;25.63;;;9.10;99.90;;;;;;5000532;28;20030;-62
2022/05/01 05:59:34;;;;;;;60.05;24.60;;;9.20;99.90;;;;;;5015278;28;20073;-62
2022/05/01 06:02:00;;;;;;;62.70;25.63;;;9.20;99.90;;;;;;5014139;28;20021;-62
2022/05/01 06:04:26;;;;;;;61.55;23.75;;;9.20;99.90;;;;;;5002428;28;20068;-62
2022/05/01 06:06:52;;;;;;;57.25;24.83;;;9.10;99.90;;;;;;5000853;28;20066;-62
2022/05/01 06:09:17;;;;;;;59.58;24.17;;;9.10;99.90;;;;;;5005634;28;20038;-62
2022/05/01 06:11:43;;;;;;;57.17;24.10;;;9.10;99.90;;;;;;5008049;28;20033;-62
2022/05/01 06:14:09;;;;;;;58.90;23.88;;;9.00;99.90;;;;;;5021737;28;20433;-62
2022/05/01 06:16:35;;;;;;;71.00;26.63;;;9.10;99.90;;;;;;5006869;28;20044;-62
2022/05/01 06:19:00;;;;;;;62.75;26.60;;;9.10;99.90;;;;;;5015835;28;20033;-62
2022/05/01 06:21:27;;;;;;;59.67;25.63;;;9.10;99.90;;;;;;5002548;28;20053;-62
2022/05/01 06:23:52;;;;;;;64.07;24.83;;;9.10;99.90;;;;;;5004992;28;20026;-62
2022/05/01 06:26:18;;;;;;;64.50;26.05;;;9.10;99.90;;;;;;5011931;28;20109;-62
2022/05/01 06:28:44;;;;;;;68.38;25.77;;;9.00;99.90;;;;;;5021707;28;20060;-62
2022/05/01 06:31:10;;;;;;;60.20;25.35;;;9.00;99.90;;;;;;5027662;28;20076;-62
2022/05/01 06:33:36;;;;;;;64.47;25.77;;;9.00;99.90;;;;;;5010477;28;20069;-62
2022/05/01 06:36:03;;;;;;;61.78;24.73;;;9.10;99.90;;;;;;5010982;28;20518;-62
2022/05/01 06:38:29;;;;;;;61.15;24.17;;;9.00;99.90;;;;;;5012442;28;20044;-62
2022/05/01 06:40:55;;;;;;;65.20;25.00;;;9.10;99.90;;;;;;5006982;28;20029;-62
2022/05/01 06:43:20;;;;;;;56.03;23.85;;;9.10;99.90;;;;;;5002836;28;20037;-62
2022/05/01 06:45:47;;;;;;;63.03;23.65;;;9.20;99.90;;;;;;5020490;28;20092;-62
2022/05/01 06:48:14;;;;;;;60.08;24.52;;;9.10;99.90;;;;;;5011692;28;20033;-62
2022/05/01 06:50:40;;;;;;;60.47;23.73;;;9.10;99.90;;;;;;4994640;28;20121;-62
2022/05/01 06:53:07;;;;;;;60.08;23.83;;;9.20;99.90;;;;;;5013579;28;20069;-62
2022/05/01 06:55:32;;;;;;;61.17;23.45;;;9.20;99.90;;;;;;5020675;28;20128;-62
2022/05/01 06:57:58;;;;;;;54.70;22.63;;;9.30;99.90;;;;;;5013533;28;20082;-62
2022/05/01 07:00:24;;;;;;;56.78;22.13;;;9.30;99.90;;;;;;4998452;28;20031;-62
2022/05/01 07:02:52;;;;;;;48.42;20.98;;;9.40;99.90;;;;;;4992607;28;20498;-62
2022/05/01 07:05:19;;;;;;;51.13;20.60;;;9.50;99.90;;;;;;5003226;28;20125;-62
2022/05/01 07:07:46;;;;;;;51.20;20.33;;;9.60;99.90;;;;;;5011825;28;20038;-62
2022/05/01 07:10:12;;;;;;;45.55;19.30;;;9.60;99.90;;;;;;5012729;28;20041;-62
2022/05/01 07:12:38;;;;;;;52.88;21.35;;;9.70;99.90;;;;;;5008978;28;20076;-62
2022/05/01 07:15:04;;;;;;;48.92;19.77;;;9.70;99.90;;;;;;5001859;28;20042;-62
2022/05/01 07:17:30;;;;;;;53.30;21.40;;;9.80;99.90;;;;;;4991357;28;20666;-62
2022/05/01 07:19:56;;;;;;;48.58;19.38;;;9.90;99.90;;;;;;4995510;28;20034;-62
2022/05/01 07:22:21;;;;;;;52.00;20.77;;;10.00;99.90;;;;;;5008869;28;20030;-62
2022/05/01 07:24:47;;;;;;;48.10;18.38;;;10.10;99.90;;;;;;5029189;28;20076;-62
2022/05/01 07:27:13;;;;;;;43.85;18.08;;;10.20;99.90;;;;;;4978861;28;20089;-62
2022/05/01 07:29:39;;;;;;;44.20;18.20;;;10.30;99.90;;;;;;5010816;28;20038;-62
2022/05/01 07:32:05;;;;;;;45.17;18.33;;;10.50;99.90;;;;;;5001553;28;20058;-62
2022/05/01 07:34:30;;;;;;;40.10;17.83;;;10.50;99.90;;;;;;4990912;28;20068;-62
2022/05/01 07:36:56;;;;;;;43.30;17.55;;;10.50;99.90;;;;;;4992961;28;20135;-62
2022/05/01 07:39:22;;;;;;;47.63;19.38;;;10.40;99.90;;;;;;5000039;28;20052;-63
2022/05/01 07:41:48;;;;;;;43.90;19.00;;;10.50;99.90;;;;;;4993894;28;20026;-62
2022/05/01 07:44:14;;;;;;;38.67;17.17;;;10.40;99.90;;;;;;5010888;28;20072;-62
2022/05/01 07:46:40;;;;;;;43.53;17.50;;;10.60;99.90;;;;;;5010886;28;20062;-62
2022/05/01 07:49:10;;;;;;;44.08;18.77;;;10.60;99.90;;;;;;5010826;28;20565;-62
2022/05/01 07:51:36;;;;;;;42.40;17.85;;;10.70;99.90;;;;;;5010127;28;20214;-62
2022/05/01 07:54:04;;;;;;;43.40;18.75;;;10.90;99.90;;;;;;5009732;28;20467;-63
2022/05/01 07:56:31;;;;;;;41.83;19.05;;;11.10;99.90;;;;;;5009893;28;20022;-62
2022/05/01 07:58:57;;;;;;;40.67;17.88;;;11.20;99.90;;;;;;5010784;28;20041;-63
2022/05/01 08:01:24;;;;;;;48.55;19.45;;;11.20;99.90;;;;;;5008966;28;20026;-62
2022/05/01 08:06:35;;;;;;;40.08;16.45;;;11.30;99.90;;;;;;5010364;28;20037;-62
2022/05/01 08:09:00;;;;;;;40.22;16.98;;;11.20;99.90;;;;;;5010805;28;20561;-62
2022/05/01 08:11:26;;;;;;;44.88;17.38;;;11.40;99.90;;;;;;5009380;28;20042;-62
2022/05/01 08:13:52;;;;;;;38.83;17.27;;;11.70;99.90;;;;;;5010640;28;20025;-62
2022/05/01 08:16:17;;;;;;;37.80;16.90;;;11.80;99.90;;;;;;5008511;28;20057;-62
2022/05/01 08:21:31;;;;;;;40.10;17.23;;;12.00;99.90;;;;;;5009859;28;20029;-62
2022/05/01 08:23:57;;;;;;;38.17;16.80;;;12.10;99.90;;;;;;5010615;28;20038;-62
2022/05/01 08:26:23;;;;;;;33.13;15.00;;;12.20;99.90;;;;;;4992069;28;20026;-62
2022/05/01 08:28:52;;;;;;;32.42;14.43;;;12.30;99.90;;;;;;5010420;28;20463;-62
2022/05/01 08:31:18;;;;;;;37.88;15.98;;;12.40;99.90;;;;;;5019956;28;20025;-62
2022/05/01 08:33:44;;;;;;;34.80;15.32;;;12.50;99.90;;;;;;5030392;28;20017;-62
2022/05/01 08:36:10;;;;;;;33.13;14.63;;;12.70;99.90;;;;;;5019498;28;20030;-62
2022/05/01 08:38:37;;;;;;;31.42;14.88;;;12.70;99.90;;;;;;5001508;28;20502;-62
2022/05/01 08:41:03;;;;;;;29.77;14.30;;;12.70;99.90;;;;;;4990001;28;20475;-62
2022/05/01 08:43:29;;;;;;;31.15;14.85;;;12.90;99.90;;;;;;4999252;28;20081;-62
2022/05/01 08:46:17;;;;;;;26.33;12.88;;;13.00;99.90;;;;;;5005286;28;20061;-62
2022/05/01 08:48:47;;;;;;;22.00;10.40;;;12.80;99.90;;;;;;5002536;28;20966;-62
2022/05/01 08:51:16;;;;;;;22.42;10.10;;;12.70;99.90;;;;;;4995344;28;20065;-62
2022/05/01 08:53:43;;;;;;;26.23;11.65;;;12.80;99.90;;;;;;4990263;28;20026;-62
2022/05/01 08:56:10;;;;;;;27.20;11.98;;;12.80;99.90;;;;;;4993792;28;20030;-62
2022/05/01 08:58:39;;;;;;;23.20;10.90;;;12.90;99.90;;;;;;5004153;28;20148;-62
2022/05/01 09:01:08;;;;;;;26.65;12.23;;;12.80;99.90;;;;;;4999167;28;20061;-62
2022/05/01 09:03:35;;;;;;;20.45;10.30;;;12.90;99.90;;;;;;4989440;28;20033;-62
2022/05/01 09:06:01;;;;;;;22.75;10.88;;;12.70;99.90;;;;;;4986420;28;20534;-62
2022/05/01 09:08:29;;;;;;;23.15;10.82;;;12.80;99.90;;;;;;4988771;28;20093;-61
2022/05/01 09:10:55;;;;;;;24.17;11.85;;;13.00;99.90;;;;;;5007064;28;20129;-62
2022/05/01 09:13:24;;;;;;;24.83;11.52;;;12.90;99.90;;;;;;4997687;28;20061;-61
2022/05/01 09:15:50;;;;;;;23.02;11.55;;;12.90;99.90;;;;;;4995301;28;20116;-62
2022/05/01 09:18:16;;;;;;;27.35;12.45;;;13.10;99.90;;;;;;5007215;28;20764;-62
2022/05/01 09:21:03;;;;;;;26.08;11.38;;;13.20;99.90;;;;;;4991867;28;20021;-63
2022/05/01 09:23:44;;;;;;;32.55;12.13;;;13.50;99.90;;;;;;5003090;28;20033;-62
2022/05/01 09:26:12;;;;;;;27.98;12.25;;;13.60;99.90;;;;;;4990880;28;20116;-62
2022/05/01 09:28:51;;;;;;;22.58;11.80;;;13.70;99.90;;;;;;5006740;28;20097;-62
2022/05/01 09:31:18;;;;;;;24.90;11.23;;;14.00;99.90;;;;;;5006398;28;20048;-62
2022/05/01 09:33:43;;;;;;;22.58;11.93;;;14.30;99.90;;;;;;4987799;28;20148;-62
2022/05/01 09:36:33;;;;;;;25.33;11.82;;;14.20;99.90;;;;;;5004899;28;20540;-62
2022/05/01 09:39:03;;;;;;;23.38;11.32;;;13.80;99.90;;;;;;5014752;28;20036;-62
2022/05/01 09:41:29;;;;;;;26.42;13.05;;;13.70;99.90;;;;;;5011927;28;20029;-62
2022/05/01 09:43:54;;;;;;;24.45;12.00;;;13.50;99.90;;;;;;5009472;28;20053;-62
2022/05/01 09:46:22;;;;;;;26.05;12.95;;;13.70;99.90;;;;;;4984853;28;20092;-62
2022/05/01 09:49:15;;;;;;;26.25;13.00;;;14.10;99.90;;;;;;5004597;28;20045;-62
2022/05/01 09:51:52;;;;;;;27.73;13.52;;;14.40;99.90;;;;;;4998263;28;20626;-62
2022/05/01 09:54:23;;;;;;;25.45;12.32;;;14.60;99.90;;;;;;5009042;28;20030;-63
2022/05/01 09:56:57;;;;;;;32.75;13.75;;;14.90;99.90;;;;;;5009447;28;20038;-62
2022/05/01 09:59:24;;;;;;;23.85;12.82;;;15.10;99.90;;;;;;5007052;28;20026;-62
2022/05/01 10:02:08;;;;;;;24.92;12.27;;;15.10;99.90;;;;;;5007201;28;20072;-62
2022/05/01 10:04:36;;;;;;;26.27;12.63;;;15.30;99.90;;;;;;5006359;28;20112;-62
2022/05/01 10:07:03;;;;;;;23.77;12.00;;;15.50;99.90;;;;;;4998058;28;20030;-62
2022/05/01 10:09:31;;;;;;;24.63;12.57;;;15.30;99.90;;;;;;5001844;28;20037;-62
2022/05/01 10:11:59;;;;;;;25.52;12.43;;;15.10;99.90;;;;;;5005308;28;20030;-62
2022/05/01 10:14:26;;;;;;;28.05;13.23;;;15.30;99.90;;;;;;5007328;28;20046;-62
2022/05/01 10:16:54;;;;;;;23.30;12.57;;;15.10;99.90;;;;;;5006970;28;20038;-61
2022/05/01 10:19:23;;;;;;;25.02;12.55;;;15.10;99.90;;;;;;5006112;28;20696;-61
2022/05/01 10:21:50;;;;;;;23.50;12.82;;;14.90;99.90;;;;;;4990566;28;20033;-61
2022/05/01 10:24:17;;;;;;;25.33;12.30;;;14.70;99.90;;;;;;5005446;28;20372;-62
2022/05/01 10:26:57;;;;;;;24.80;12.82;;;14.40;99.90;;;;;;5008884;28;20034;-61
2022/05/01 10:29:31;;;;;;;27.20;13.75;;;14.20;99.90;;;;;;5007261;28;20038;-62
2022/05/01 10:32:31;;;;;;;26.88;12.23;;;14.10;99.90;;;;;;5006670;28;20034;-62
2022/05/01 10:35:32;;;;;;;26.33;13.57;;;14.30;99.90;;;;;;5020885;28;20036;-62
2022/05/01 10:38:23;;;;;;;26.13;12.98;;;14.10;99.90;;;;;;5003505;28;20112;-62
2022/05/01 10:40:52;;;;;;;;;;;14.00;99.90;;;;;;5010112;28;20027;-62
2022/05/01 10:43:38;;;;;;;23.50;10.45;;;14.10;99.90;;;;;;5005034;28;19905;-62
2022/05/01 10:46:30;;;;;;;23.88;12.48;;;14.30;99.90;;;;;;5007647;28;20105;-62
2022/05/01 10:49:00;;;;;;;27.90;13.25;;;14.20;99.90;;;;;;4997975;28;20673;-62
2022/05/01 10:51:36;;;;;;;26.00;12.75;;;14.20;99.90;;;;;;4999428;28;20473;-62
2022/05/01 10:54:10;;;;;;;23.65;12.32;;;14.20;99.90;;;;;;4992733;28;20031;-62
2022/05/01 10:56:38;;;;;;;25.98;12.32;;;13.90;99.90;;;;;;4997027;28;20802;-62
2022/05/01 10:59:35;;;;;;;27.25;13.68;;;13.90;99.90;;;;;;5003145;28;20029;-62
2022/05/01 11:02:05;;;;;;;25.05;12.80;;;14.00;99.90;;;;;;4997253;28;20749;-62
2022/05/01 11:04:41;;;;;;;29.33;14.40;;;14.20;99.90;;;;;;4991765;28;20510;-62
2022/05/01 11:07:13;;;;;;;25.40;13.32;;;14.10;99.90;;;;;;5009504;28;20045;-63
2022/05/01 11:09:41;;;;;;;28.55;14.60;;;13.90;99.90;;;;;;5011042;28;20038;-62
2022/05/01 11:12:09;;;;;;;27.35;14.00;;;13.80;99.90;;;;;;4995996;28;20041;-62
2022/05/01 11:14:49;;;;;;;29.55;14.13;;;13.80;99.90;;;;;;4991265;28;20384;-62
2022/05/01 11:17:15;;;;;;;26.40;12.70;;;13.60;99.90;;;;;;4992255;28;20475;-62
2022/05/01 11:19:50;;;;;;;25.13;13.32;;;13.70;99.90;;;;;;4991272;28;20586;-62
2022/05/01 11:22:24;;;;;;;25.42;13.15;;;13.80;99.90;;;;;;4991787;28;20066;-62
2022/05/01 11:24:50;;;;;;;25.35;14.15;;;14.00;99.90;;;;;;4991157;28;20026;-62
2022/05/01 11:27:17;;;;;;;27.05;13.27;;;14.20;99.90;;;;;;5009500;28;20046;-63
2022/05/01 11:30:06;;;;;;;23.52;12.43;;;14.60;99.90;;;;;;5009135;28;20349;-62
2022/05/01 11:33:02;;;;;;;22.70;11.68;;;14.90;99.90;;;;;;4994095;28;20046;-62
2022/05/01 11:36:00;;;;;;;25.38;13.65;;;15.40;99.90;;;;;;4995420;28;20034;-62
2022/05/01 11:38:39;;;;;;;21.17;11.88;;;15.80;99.90;;;;;;4992025;28;20490;-62
2022/05/01 11:41:06;;;;;;;20.30;11.52;;;16.50;99.90;;;;;;4976588;28;20395;-62
2022/05/01 11:43:34;;;;;;;22.98;12.00;;;16.70;99.90;;;;;;5002120;28;20105;-62
2022/05/01 11:46:02;;;;;;;22.13;12.32;;;16.80;99.90;;;;;;4997336;28;20024;-62
2022/05/01 11:48:28;;;;;;;25.35;11.77;;;17.00;99.90;;;;;;5002141;28;20074;-62
2022/05/01 11:50:58;;;;;;;22.52;12.20;;;17.30;99.90;;;;;;4995780;28;20029;-62
2022/05/01 11:53:29;;;;;;;25.80;12.20;;;17.60;99.90;;;;;;5011133;28;20106;-62
2022/05/01 12:04:35;;;;;;;19.75;11.80;;;16.50;99.90;;;;;;4990706;28;20088;-62
2022/05/01 12:07:02;;;;;;;20.73;12.20;;;16.40;99.90;;;;;;4990797;28;20033;-62
2022/05/01 12:09:29;;;;;;;20.60;11.77;;;16.00;99.90;;;;;;4994338;28;20116;-62
2022/05/01 12:11:55;;;;;;;22.85;12.20;;;15.80;99.90;;;;;;4996051;28;20061;-62
2022/05/01 12:14:21;;;;;;;22.63;10.88;;;15.90;99.90;;;;;;5007452;28;20100;-62
2022/05/01 12:16:47;;;;;;;19.23;10.75;;;15.90;99.90;;;;;;5007601;28;20044;-62
2022/05/01 12:19:15;;;;;;;18.98;10.98;;;15.80;99.90;;;;;;5010657;28;20030;-62
2022/05/01 12:21:41;;;;;;;17.42;10.20;;;15.80;99.90;;;;;;4995860;28;20046;-62
2022/05/01 12:24:09;;;;;;;17.42;9.85;;;15.80;99.90;;;;;;4973511;28;20129;-62
2022/05/01 12:26:38;;;;;;;16.88;10.05;;;15.80;99.90;;;;;;5003938;28;20026;-62
2022/05/01 12:29:08;;;;;;;24.45;11.15;;;15.70;99.90;;;;;;5010005;28;20100;-62
2022/05/01 12:32:06;;;;;;;47.90;19.83;;;15.70;99.90;;;;;;4989490;28;20027;-62
2022/05/01 12:34:35;;;;;;;19.40;11.35;;;15.70;99.90;;;;;;4974162;28;20042;-62
2022/05/01 12:37:03;;;;;;;19.95;10.98;;;15.70;99.90;;;;;;4992831;28;20042;-62
2022/05/01 12:39:29;;;;;;;20.67;11.23;;;15.70;99.90;;;;;;5003606;28;20459;-62
2022/05/01 12:45:05;;;;;;;23.55;11.27;;;15.70;99.90;;;;;;4990999;28;20104;-62
2022/05/01 12:47:33;;;;;;;19.38;11.13;;;15.60;99.90;;;;;;4993449;28;20038;-62
2022/05/01 12:50:00;;;;;;;20.80;11.30;;;15.50;99.90;;;;;;4990095;28;20157;-62
2022/05/01 12:52:37;;;;;;;22.42;11.13;;;15.50;99.90;;;;;;5001189;28;20022;-62
2022/05/01 12:55:06;;;;;;;23.05;10.77;;;15.50;99.90;;;;;;4990469;28;20456;-62
2022/05/01 12:57:36;;;;;;;17.87;10.33;;;15.70;99.90;;;;;;4991817;28;20038;-62
2022/05/01 13:00:05;;;;;;;19.48;10.55;;;15.80;99.90;;;;;;4974703;28;20289;-63
2022/05/01 13:02:31;;;;;;;20.33;10.40;;;15.80;99.90;;;;;;4988930;28;20446;-62
2022/05/01 13:05:04;;;;;;;17.55;10.60;;;15.80;99.90;;;;;;4989992;28;20026;-62
2022/05/01 13:07:33;;;;;;;18.75;9.93;;;15.80;99.90;;;;;;5004055;28;20026;-62
2022/05/01 13:09:59;;;;;;;20.20;10.18;;;16.00;99.90;;;;;;5000503;28;20065;-62
2022/05/01 13:12:34;;;;;;;17.67;9.70;;;16.20;99.90;;;;;;4992244;28;20034;-62